createdAt,value
2023-02-11T00:02:50.766Z,4.30
2023-02-11T00:07:52.625Z,4.34
2023-02-11T00:12:54.515Z,4.38
2023-02-11T00:17:56.638Z,4.41
2023-02-11T00:22:58.498Z,4.44
2023-02-11T00:28:00.472Z,4.45
2023-02-11T00:33:02.617Z,4.49
2023-02-11T00:38:04.785Z,4.50
2023-02-11T00:43:06.703Z,4.52
2023-02-11T00:48:08.602Z,4.56
2023-02-11T00:53:10.924Z,4.59
2023-02-11T00:58:13.586Z,4.64
2023-02-11T01:03:17.397Z,4.66
2023-02-11T01:08:19.965Z,4.71
2023-02-11T01:13:22.214Z,4.73
2023-02-11T01:18:25.135Z,4.79
2023-02-11T01:23:27.220Z,4.83
2023-02-11T01:28:30.296Z,4.86
2023-02-11T01:33:34.803Z,4.92
2023-02-11T01:38:38.026Z,4.99
2023-02-11T01:43:46.384Z,5.06
2023-02-11T01:48:53.363Z,5.13
2023-02-11T01:54:16.037Z,5.17
2023-02-11T01:59:27.762Z,5.23
2023-02-11T02:04:35.591Z,5.28
2023-02-11T02:09:43.397Z,5.33
2023-02-11T02:14:45.248Z,5.38
2023-02-11T02:20:04.332Z,5.42
2023-02-11T02:25:27.297Z,5.51
2023-02-11T02:31:06.469Z,5.61
2023-02-11T02:36:14.357Z,5.71
2023-02-11T02:41:20.162Z,5.79
2023-02-11T02:46:33.501Z,5.89
2023-02-11T02:51:55.592Z,5.97
2023-02-11T02:57:34.127Z,6.09
2023-02-11T03:03:06.559Z,6.13
2023-02-11T03:08:11.343Z,6.20
2023-02-11T03:13:19.249Z,6.27
2023-02-11T03:18:24.635Z,6.35
2023-02-11T03:24:03.307Z,6.41
2023-02-11T03:29:18.468Z,6.47
2023-02-11T03:34:29.158Z,6.51
2023-02-11T03:39:38.083Z,6.53
2023-02-11T03:45:03.130Z,6.56
2023-02-11T03:50:07.830Z,6.61
2023-02-11T03:55:15.257Z,6.58
2023-02-11T04:00:17.185Z,6.56
2023-02-11T04:05:19.090Z,6.58
2023-02-11T04:10:21.182Z,6.52
2023-02-11T04:15:23.386Z,6.47
2023-02-11T04:20:25.222Z,6.46
2023-02-11T04:25:27.353Z,6.45
2023-02-11T04:30:29.217Z,6.51
2023-02-11T04:35:31.078Z,6.57
2023-02-11T04:40:32.932Z,6.62
2023-02-11T04:45:34.829Z,6.66
2023-02-11T04:50:36.961Z,6.68
2023-02-11T04:55:38.812Z,6.72
2023-02-11T05:00:40.658Z,6.66
2023-02-11T05:05:43.156Z,6.67
2023-02-11T05:10:48.142Z,6.63
2023-02-11T05:15:50.804Z,6.52
2023-02-11T05:20:52.801Z,6.32
2023-02-11T05:25:54.607Z,6.10
2023-02-11T05:30:56.861Z,5.98
2023-02-11T05:36:01.997Z,5.90
2023-02-11T05:41:05.599Z,5.86
2023-02-11T05:46:07.694Z,5.86
2023-02-11T05:51:09.832Z,5.87
2023-02-11T05:56:11.796Z,5.75
2023-02-11T06:01:13.630Z,5.69
2023-02-11T06:06:15.787Z,5.68
2023-02-11T06:11:18.381Z,5.66
2023-02-11T06:16:20.266Z,5.64
2023-02-11T06:21:23.865Z,5.74
2023-02-11T06:26:27.045Z,5.68
2023-02-11T06:31:29.174Z,5.67
2023-02-11T06:36:31.585Z,5.75
2023-02-11T06:41:34.022Z,5.81
2023-02-11T06:46:36.286Z,5.85
2023-02-11T06:51:38.301Z,5.91
2023-02-11T06:56:41.412Z,5.95
2023-02-11T07:01:43.802Z,5.97
2023-02-11T07:06:45.660Z,5.96
2023-02-11T07:11:47.551Z,5.90
2023-02-11T07:16:49.400Z,5.82
2023-02-11T07:21:51.271Z,5.79
2023-02-11T07:26:54.198Z,5.79
2023-02-11T07:31:56.224Z,5.78
2023-02-11T07:36:58.078Z,5.86
2023-02-11T07:42:00.246Z,5.81
2023-02-11T07:47:03.299Z,5.80
2023-02-11T07:52:05.277Z,5.88
2023-02-11T07:57:07.116Z,5.79
2023-02-11T08:02:09.731Z,5.89
2023-02-11T08:07:15.291Z,5.85
2023-02-11T08:12:17.425Z,5.83
2023-02-11T08:17:19.916Z,5.87
2023-02-11T08:22:21.843Z,6.01
2023-02-11T08:27:23.651Z,6.08
2023-02-11T08:32:25.982Z,6.14
2023-02-11T08:37:27.837Z,6.11
2023-02-11T08:42:29.869Z,6.08
2023-02-11T08:47:31.675Z,6.07
2023-02-11T08:52:33.603Z,6.05
2023-02-11T08:57:35.521Z,6.06
2023-02-11T09:02:37.546Z,6.11
2023-02-11T09:07:39.444Z,6.18
2023-02-11T09:12:41.250Z,6.29
2023-02-11T09:17:43.103Z,6.37
2023-02-11T09:22:45.061Z,6.45
2023-02-11T09:27:47.077Z,6.49
2023-02-11T09:32:48.952Z,6.45
2023-02-11T09:37:50.839Z,6.47
2023-02-11T09:43:11.849Z,6.50
2023-02-11T09:48:18.577Z,6.59
2023-02-11T09:53:28.634Z,6.66
2023-02-11T09:58:33.583Z,6.71
2023-02-11T10:03:43.718Z,6.79
2023-02-11T10:09:13.301Z,6.81
2023-02-11T10:14:25.680Z,6.87
2023-02-11T10:19:42.402Z,6.90
2023-02-11T10:24:53.279Z,6.98
2023-02-11T10:30:24.467Z,7.07
2023-02-11T10:35:27.377Z,7.14
2023-02-11T10:40:31.033Z,7.25
2023-02-11T10:45:36.985Z,7.29
2023-02-11T10:50:38.835Z,7.39
2023-02-11T10:55:55.679Z,7.41
2023-02-11T11:00:59.994Z,7.44
2023-02-11T11:06:05.540Z,7.54
2023-02-11T11:11:09.681Z,7.59
2023-02-11T11:16:14.291Z,7.69
2023-02-11T11:21:25.823Z,7.70
2023-02-11T11:26:39.687Z,7.72
2023-02-11T11:32:05.501Z,7.77
2023-02-11T11:37:35.106Z,7.79
2023-02-11T11:42:39.897Z,7.84
2023-02-11T11:47:48.788Z,7.89
2023-02-11T11:53:05.351Z,7.89
2023-02-11T11:58:15.097Z,7.90
2023-02-11T12:03:25.883Z,7.94
2023-02-11T12:08:42.803Z,7.95
2023-02-11T12:14:09.163Z,7.98
2023-02-11T12:19:24.597Z,8.04
2023-02-11T12:24:54.604Z,8.08
2023-02-11T12:30:09.072Z,8.08
2023-02-11T12:35:47.483Z,8.01
2023-02-11T12:41:12.715Z,7.98
2023-02-11T12:46:39.410Z,7.95
2023-02-11T12:51:50.364Z,7.96
2023-02-11T12:57:06.574Z,7.92
2023-02-11T13:02:26.603Z,7.91
2023-02-11T13:07:35.625Z,7.43
2023-02-11T13:12:56.938Z,7.40
2023-02-11T13:18:37.357Z,7.36
2023-02-11T13:23:45.032Z,7.35
2023-02-11T13:29:17.412Z,7.34
2023-02-11T13:34:45.397Z,7.32
2023-02-11T13:40:22.027Z,7.35
2023-02-11T13:45:47.503Z,7.32
2023-02-11T13:50:55.972Z,7.28
2023-02-11T13:56:24.388Z,7.29
2023-02-11T14:01:42.377Z,7.30
2023-02-11T14:07:42.113Z,7.28
2023-02-11T14:13:20.001Z,7.32
2023-02-11T14:18:52.930Z,7.37
2023-02-11T14:24:14.753Z,7.76
2023-02-11T14:29:42.468Z,7.93
2023-02-11T14:34:56.526Z,7.98
2023-02-11T14:40:07.222Z,8.03
2023-02-11T14:45:14.550Z,8.05
2023-02-11T14:50:22.861Z,8.13
2023-02-11T14:55:38.158Z,8.10
2023-02-11T15:00:49.775Z,8.11
2023-02-11T15:06:33.436Z,8.13
2023-02-11T15:11:40.822Z,8.05
2023-02-11T15:16:45.188Z,8.06
2023-02-11T15:21:48.017Z,8.07
2023-02-11T15:27:04.790Z,8.07
2023-02-11T15:32:10.062Z,8.07
2023-02-11T15:37:21.156Z,8.07
2023-02-11T15:42:32.523Z,8.10
2023-02-11T15:47:39.696Z,8.16
2023-02-11T15:52:45.750Z,8.22
2023-02-11T15:57:55.095Z,8.21
2023-02-11T16:02:57.180Z,8.11
2023-02-11T16:08:00.929Z,8.00
2023-02-11T16:13:08.796Z,7.96
2023-02-11T16:18:37.820Z,7.95
2023-02-11T16:23:44.235Z,7.90
2023-02-11T16:28:46.529Z,7.84
2023-02-11T16:33:48.648Z,7.80
2023-02-11T16:38:50.630Z,7.73
2023-02-11T16:43:52.485Z,7.68
2023-02-11T16:48:56.317Z,7.57
2023-02-11T16:53:58.145Z,7.57
2023-02-11T16:59:00.767Z,7.60
2023-02-11T17:04:02.688Z,7.59
2023-02-11T17:09:06.807Z,7.58
2023-02-11T17:14:08.607Z,7.60
2023-02-11T17:19:13.838Z,7.57
2023-02-11T17:24:15.956Z,7.58
2023-02-11T17:29:22.994Z,7.62
2023-02-11T17:34:25.009Z,7.69
2023-02-11T17:39:27.667Z,7.77
2023-02-11T17:44:29.511Z,7.82
2023-02-11T17:49:32.576Z,7.83
2023-02-11T17:54:35.214Z,7.79
2023-02-11T17:59:38.796Z,7.85
2023-02-11T18:04:40.823Z,7.81
2023-02-11T18:09:42.941Z,7.85
2023-02-11T18:14:45.145Z,7.89
2023-02-11T18:19:47.325Z,7.83
2023-02-11T18:24:54.764Z,7.87
2023-02-11T18:29:56.557Z,7.91
2023-02-11T18:34:58.383Z,7.92
2023-02-11T18:40:00.250Z,7.93
2023-02-11T18:45:02.355Z,7.90
2023-02-11T18:50:06.152Z,7.93
2023-02-11T18:55:09.560Z,7.95
2023-02-11T19:00:12.248Z,8.02
2023-02-11T19:05:14.267Z,7.98
2023-02-11T19:10:16.388Z,7.93
2023-02-11T19:15:18.318Z,8.00
2023-02-11T19:20:20.387Z,8.03
2023-02-11T19:25:22.460Z,8.00
2023-02-11T19:30:24.592Z,7.97
2023-02-11T19:35:26.587Z,7.96
2023-02-11T19:40:28.429Z,8.03
2023-02-11T19:45:30.343Z,8.03
2023-02-11T19:50:32.242Z,7.95
2023-02-11T19:55:36.897Z,7.96
2023-02-11T20:00:39.158Z,7.96
2023-02-11T20:05:43.459Z,7.98
2023-02-11T20:10:45.305Z,7.98
2023-02-11T20:15:47.638Z,7.98
2023-02-11T20:20:49.485Z,8.02
2023-02-11T20:25:51.629Z,8.03
2023-02-11T20:30:57.860Z,8.05
2023-02-11T20:36:02.980Z,8.02
2023-02-11T20:41:14.736Z,7.99
2023-02-11T20:46:18.485Z,7.94
2023-02-11T20:51:24.079Z,7.96
2023-02-11T20:56:31.502Z,8.00
2023-02-11T21:01:40.747Z,8.00
2023-02-11T21:06:47.266Z,7.99
2023-02-11T21:11:51.813Z,8.03
2023-02-11T21:16:55.922Z,8.08
2023-02-11T21:22:01.016Z,8.11
2023-02-11T21:27:03.214Z,8.10
2023-02-11T21:32:05.408Z,8.09
2023-02-11T21:37:07.262Z,8.11
2023-02-11T21:42:09.467Z,8.12
2023-02-11T21:47:11.553Z,8.13
2023-02-11T21:52:13.910Z,8.11
2023-02-11T21:57:15.867Z,8.14
2023-02-11T22:02:17.767Z,8.15
2023-02-11T22:07:20.862Z,8.12
2023-02-11T22:12:23.340Z,8.08
2023-02-11T22:17:25.349Z,8.12
2023-02-11T22:22:29.285Z,8.10
2023-02-11T22:27:31.224Z,8.02
2023-02-11T22:32:33.141Z,8.18
2023-02-11T22:37:35.125Z,8.14
2023-02-11T22:42:37.012Z,8.27
2023-02-11T22:47:38.997Z,8.29
2023-02-11T22:52:40.820Z,8.33
2023-02-11T22:57:42.640Z,8.38
2023-02-11T23:02:44.533Z,8.41
2023-02-11T23:07:46.372Z,8.38
2023-02-11T23:12:48.200Z,8.37
2023-02-11T23:17:50.039Z,8.39
2023-02-11T23:22:52.052Z,8.38
2023-02-11T23:27:53.892Z,8.33
2023-02-11T23:32:55.719Z,8.35
2023-02-11T23:37:57.587Z,8.37
2023-02-11T23:42:59.409Z,8.33
2023-02-11T23:48:01.213Z,8.34
2023-02-11T23:53:03.066Z,8.37
2023-02-11T23:58:04.875Z,8.43
